sensor_id;sensor_type;location;lat;lon;timestamp;P1;durP1;ratioP1;P2;durP2;ratioP2
25913;SDS011;13718;50.922;5.346;2022-07-29T00:02:17;7.40;;;3.13;;
25913;SDS011;13718;50.922;5.346;2022-07-29T00:04:43;8.80;;;3.78;;
25913;SDS011;13718;50.922;5.346;2022-07-29T00:07:08;9.82;;;3.75;;
25913;SDS011;13718;50.922;5.346;2022-07-29T00:09:34;7.30;;;3.42;;
25913;SDS011;13718;50.922;5.346;2022-07-29T00:12:00;11.02;;;4.28;;
25913;SDS011;13718;50.922;5.346;2022-07-29T00:14:26;11.57;;;3.83;;
25913;SDS011;13718;50.922;5.346;2022-07-29T00:16:53;8.98;;;3.75;;
25913;SDS011;13718;50.922;5.346;2022-07-29T00:19:19;13.80;;;4.20;;
25913;SDS011;13718;50.922;5.346;2022-07-29T00:21:47;10.90;;;3.55;;
25913;SDS011;13718;50.922;5.346;2022-07-29T00:24:13;7.65;;;3.55;;
25913;SDS011;13718;50.922;5.346;2022-07-29T00:26:42;10.82;;;3.92;;
25913;SDS011;13718;50.922;5.346;2022-07-29T00:29:07;11.43;;;3.83;;
25913;SDS011;13718;50.922;5.346;2022-07-29T00:31:33;8.65;;;3.63;;
25913;SDS011;13718;50.922;5.346;2022-07-29T00:33:58;11.65;;;3.67;;
25913;SDS011;13718;50.922;5.346;2022-07-29T00:36:24;5.63;;;3.15;;
25913;SDS011;13718;50.922;5.346;2022-07-29T00:38:50;10.30;;;3.67;;
25913;SDS011;13718;50.922;5.346;2022-07-29T00:41:25;9.07;;;3.60;;
25913;SDS011;13718;50.922;5.346;2022-07-29T00:43:51;8.90;;;3.80;;
25913;SDS011;13718;50.922;5.346;2022-07-29T00:46:16;7.75;;;3.85;;
25913;SDS011;13718;50.922;5.346;2022-07-29T00:48:42;8.10;;;4.20;;
25913;SDS011;13718;50.922;5.346;2022-07-29T00:51:07;15.32;;;3.67;;
25913;SDS011;13718;50.922;5.346;2022-07-29T00:53:35;14.75;;;4.85;;
25913;SDS011;13718;50.922;5.346;2022-07-29T00:56:01;9.77;;;3.97;;
25913;SDS011;13718;50.922;5.346;2022-07-29T00:58:26;14.32;;;4.18;;
25913;SDS011;13718;50.922;5.346;2022-07-29T01:00:52;7.40;;;3.38;;
25913;SDS011;13718;50.922;5.346;2022-07-29T01:03:18;10.07;;;3.50;;
25913;SDS011;13718;50.922;5.346;2022-07-29T01:05:44;10.52;;;3.78;;
25913;SDS011;13718;50.922;5.346;2022-07-29T01:08:11;7.25;;;3.92;;
25913;SDS011;13718;50.922;5.346;2022-07-29T01:10:38;10.48;;;3.50;;
25913;SDS011;13718;50.922;5.346;2022-07-29T01:13:05;12.60;;;3.58;;
25913;SDS011;13718;50.922;5.346;2022-07-29T01:15:32;18.77;;;4.57;;
25913;SDS011;13718;50.922;5.346;2022-07-29T01:18:07;10.00;;;4.05;;
25913;SDS011;13718;50.922;5.346;2022-07-29T01:20:58;8.38;;;3.92;;
25913;SDS011;13718;50.922;5.346;2022-07-29T01:31:28;12.13;;;4.25;;
25913;SDS011;13718;50.922;5.346;2022-07-29T01:34:02;14.98;;;4.88;;
25913;SDS011;13718;50.922;5.346;2022-07-29T01:36:32;9.80;;;4.65;;
25913;SDS011;13718;50.922;5.346;2022-07-29T01:41:36;16.45;;;5.57;;
25913;SDS011;13718;50.922;5.346;2022-07-29T01:44:13;11.73;;;5.80;;
25913;SDS011;13718;50.922;5.346;2022-07-29T01:46:44;11.77;;;6.40;;
25913;SDS011;13718;50.922;5.346;2022-07-29T01:49:15;19.40;;;6.30;;
25913;SDS011;13718;50.922;5.346;2022-07-29T01:51:50;16.88;;;6.57;;
25913;SDS011;13718;50.922;5.346;2022-07-29T01:54:35;16.92;;;6.65;;
25913;SDS011;13718;50.922;5.346;2022-07-29T01:57:04;14.25;;;6.20;;
25913;SDS011;13718;50.922;5.346;2022-07-29T01:59:33;15.20;;;7.50;;
25913;SDS011;13718;50.922;5.346;2022-07-29T02:02:01;12.65;;;6.85;;
25913;SDS011;13718;50.922;5.346;2022-07-29T02:04:27;14.38;;;6.43;;
25913;SDS011;13718;50.922;5.346;2022-07-29T02:06:54;20.17;;;5.70;;
25913;SDS011;13718;50.922;5.346;2022-07-29T02:09:25;13.70;;;6.00;;
25913;SDS011;13718;50.922;5.346;2022-07-29T02:11:52;16.92;;;6.03;;
25913;SDS011;13718;50.922;5.346;2022-07-29T02:14:20;12.27;;;5.45;;
25913;SDS011;13718;50.922;5.346;2022-07-29T02:16:48;14.02;;;6.65;;
25913;SDS011;13718;50.922;5.346;2022-07-29T02:19:18;11.35;;;6.28;;
25913;SDS011;13718;50.922;5.346;2022-07-29T02:21:46;12.80;;;5.78;;
25913;SDS011;13718;50.922;5.346;2022-07-29T02:24:12;14.55;;;5.53;;
25913;SDS011;13718;50.922;5.346;2022-07-29T02:26:40;11.77;;;5.57;;
25913;SDS011;13718;50.922;5.346;2022-07-29T02:29:08;17.77;;;6.45;;
25913;SDS011;13718;50.922;5.346;2022-07-29T02:31:35;12.98;;;6.47;;
25913;SDS011;13718;50.922;5.346;2022-07-29T02:34:05;10.40;;;6.10;;
25913;SDS011;13718;50.922;5.346;2022-07-29T02:36:33;15.00;;;6.25;;
25913;SDS011;13718;50.922;5.346;2022-07-29T02:38:59;14.52;;;6.15;;
25913;SDS011;13718;50.922;5.346;2022-07-29T02:41:41;13.65;;;6.18;;
25913;SDS011;13718;50.922;5.346;2022-07-29T02:44:10;14.75;;;6.20;;
25913;SDS011;13718;50.922;5.346;2022-07-29T02:46:41;13.63;;;5.43;;
25913;SDS011;13718;50.922;5.346;2022-07-29T02:51:55;17.50;;;6.07;;
25913;SDS011;13718;50.922;5.346;2022-07-29T02:54:39;12.48;;;6.45;;
25913;SDS011;13718;50.922;5.346;2022-07-29T02:57:22;14.32;;;6.10;;
25913;SDS011;13718;50.922;5.346;2022-07-29T02:59:51;13.23;;;6.25;;
25913;SDS011;13718;50.922;5.346;2022-07-29T03:02:20;14.38;;;6.57;;
25913;SDS011;13718;50.922;5.346;2022-07-29T03:04:47;16.90;;;6.35;;
25913;SDS011;13718;50.922;5.346;2022-07-29T03:07:14;12.63;;;6.28;;
25913;SDS011;13718;50.922;5.346;2022-07-29T03:09:42;17.98;;;6.20;;
25913;SDS011;13718;50.922;5.346;2022-07-29T03:12:10;12.18;;;6.78;;
25913;SDS011;13718;50.922;5.346;2022-07-29T03:14:36;12.68;;;6.60;;
25913;SDS011;13718;50.922;5.346;2022-07-29T03:17:03;13.27;;;6.28;;
25913;SDS011;13718;50.922;5.346;2022-07-29T03:19:29;13.00;;;5.72;;
25913;SDS011;13718;50.922;5.346;2022-07-29T03:21:56;11.80;;;7.00;;
25913;SDS011;13718;50.922;5.346;2022-07-29T03:27:01;16.65;;;6.47;;
25913;SDS011;13718;50.922;5.346;2022-07-29T03:29:28;12.77;;;5.97;;
25913;SDS011;13718;50.922;5.346;2022-07-29T03:31:54;12.23;;;6.85;;
25913;SDS011;13718;50.922;5.346;2022-07-29T03:34:20;16.83;;;6.65;;
25913;SDS011;13718;50.922;5.346;2022-07-29T03:36:46;12.00;;;6.22;;
25913;SDS011;13718;50.922;5.346;2022-07-29T03:39:12;11.15;;;6.70;;
25913;SDS011;13718;50.922;5.346;2022-07-29T03:41:41;17.30;;;5.97;;
25913;SDS011;13718;50.922;5.346;2022-07-29T03:44:09;15.05;;;6.80;;
25913;SDS011;13718;50.922;5.346;2022-07-29T03:46:35;14.48;;;7.20;;
25913;SDS011;13718;50.922;5.346;2022-07-29T03:49:04;16.77;;;7.00;;
25913;SDS011;13718;50.922;5.346;2022-07-29T03:51:33;16.35;;;6.90;;
25913;SDS011;13718;50.922;5.346;2022-07-29T03:54:00;13.82;;;6.40;;
25913;SDS011;13718;50.922;5.346;2022-07-29T03:56:27;14.90;;;6.38;;
25913;SDS011;13718;50.922;5.346;2022-07-29T03:58:53;13.30;;;6.13;;
25913;SDS011;13718;50.922;5.346;2022-07-29T04:01:20;12.30;;;5.97;;
25913;SDS011;13718;50.922;5.346;2022-07-29T04:03:47;12.98;;;6.28;;
25913;SDS011;13718;50.922;5.346;2022-07-29T04:06:13;17.17;;;5.80;;
25913;SDS011;13718;50.922;5.346;2022-07-29T04:08:39;19.13;;;6.22;;
25913;SDS011;13718;50.922;5.346;2022-07-29T04:11:05;11.15;;;6.22;;
25913;SDS011;13718;50.922;5.346;2022-07-29T04:13:31;12.02;;;6.05;;
25913;SDS011;13718;50.922;5.346;2022-07-29T04:15:57;13.90;;;5.97;;
25913;SDS011;13718;50.922;5.346;2022-07-29T04:18:23;11.80;;;5.82;;
25913;SDS011;13718;50.922;5.346;2022-07-29T04:20:49;13.90;;;5.72;;
25913;SDS011;13718;50.922;5.346;2022-07-29T04:23:15;9.88;;;5.80;;
25913;SDS011;13718;50.922;5.346;2022-07-29T04:25:41;11.52;;;6.05;;
25913;SDS011;13718;50.922;5.346;2022-07-29T04:28:08;12.55;;;5.72;;
25913;SDS011;13718;50.922;5.346;2022-07-29T04:30:34;10.10;;;5.85;;
25913;SDS011;13718;50.922;5.346;2022-07-29T04:33:01;11.27;;;5.47;;
25913;SDS011;13718;50.922;5.346;2022-07-29T04:35:29;19.48;;;6.03;;
25913;SDS011;13718;50.922;5.346;2022-07-29T04:37:55;13.70;;;5.82;;
25913;SDS011;13718;50.922;5.346;2022-07-29T04:40:21;10.63;;;5.88;;
25913;SDS011;13718;50.922;5.346;2022-07-29T04:42:46;11.40;;;5.63;;
25913;SDS011;13718;50.922;5.346;2022-07-29T04:45:12;11.90;;;5.30;;
25913;SDS011;13718;50.922;5.346;2022-07-29T04:47:38;12.07;;;5.90;;
25913;SDS011;13718;50.922;5.346;2022-07-29T04:50:04;10.65;;;5.78;;
25913;SDS011;13718;50.922;5.346;2022-07-29T04:52:31;15.70;;;5.78;;
25913;SDS011;13718;50.922;5.346;2022-07-29T04:54:57;13.52;;;6.40;;
25913;SDS011;13718;50.922;5.346;2022-07-29T04:57:23;9.82;;;5.95;;
25913;SDS011;13718;50.922;5.346;2022-07-29T04:59:48;13.90;;;5.90;;
25913;SDS011;13718;50.922;5.346;2022-07-29T05:02:14;11.55;;;6.38;;
25913;SDS011;13718;50.922;5.346;2022-07-29T05:04:39;10.75;;;5.72;;
25913;SDS011;13718;50.922;5.346;2022-07-29T05:07:05;12.48;;;6.28;;
25913;SDS011;13718;50.922;5.346;2022-07-29T05:09:31;12.57;;;6.00;;
25913;SDS011;13718;50.922;5.346;2022-07-29T05:11:57;9.93;;;5.90;;
25913;SDS011;13718;50.922;5.346;2022-07-29T05:14:23;15.63;;;6.03;;
25913;SDS011;13718;50.922;5.346;2022-07-29T05:16:48;12.73;;;6.18;;
25913;SDS011;13718;50.922;5.346;2022-07-29T05:19:16;15.43;;;6.80;;
25913;SDS011;13718;50.922;5.346;2022-07-29T05:21:42;12.55;;;6.50;;
25913;SDS011;13718;50.922;5.346;2022-07-29T05:24:09;11.02;;;6.28;;
25913;SDS011;13718;50.922;5.346;2022-07-29T05:26:35;10.13;;;6.07;;
25913;SDS011;13718;50.922;5.346;2022-07-29T05:29:00;10.45;;;6.28;;
25913;SDS011;13718;50.922;5.346;2022-07-29T05:31:26;16.40;;;6.90;;
25913;SDS011;13718;50.922;5.346;2022-07-29T05:33:52;11.52;;;6.93;;
25913;SDS011;13718;50.922;5.346;2022-07-29T05:36:17;11.65;;;6.10;;
25913;SDS011;13718;50.922;5.346;2022-07-29T05:38:43;15.00;;;6.10;;
25913;SDS011;13718;50.922;5.346;2022-07-29T05:41:09;10.00;;;5.88;;
25913;SDS011;13718;50.922;5.346;2022-07-29T05:43:34;11.18;;;5.13;;
25913;SDS011;13718;50.922;5.346;2022-07-29T05:46:00;11.73;;;6.00;;
25913;SDS011;13718;50.922;5.346;2022-07-29T05:48:25;10.32;;;6.10;;
25913;SDS011;13718;50.922;5.346;2022-07-29T05:50:51;8.07;;;5.30;;
25913;SDS011;13718;50.922;5.346;2022-07-29T05:53:17;9.30;;;4.90;;
25913;SDS011;13718;50.922;5.346;2022-07-29T05:55:42;11.43;;;5.72;;
25913;SDS011;13718;50.922;5.346;2022-07-29T05:58:08;8.75;;;5.45;;
25913;SDS011;13718;50.922;5.346;2022-07-29T06:00:33;8.20;;;5.70;;
25913;SDS011;13718;50.922;5.346;2022-07-29T06:02:59;12.02;;;5.63;;
25913;SDS011;13718;50.922;5.346;2022-07-29T06:05:25;9.18;;;5.68;;
25913;SDS011;13718;50.922;5.346;2022-07-29T06:07:50;11.52;;;6.43;;
25913;SDS011;13718;50.922;5.346;2022-07-29T06:10:16;10.82;;;5.63;;
25913;SDS011;13718;50.922;5.346;2022-07-29T06:12:42;13.05;;;5.88;;
25913;SDS011;13718;50.922;5.346;2022-07-29T06:15:07;9.80;;;5.75;;
25913;SDS011;13718;50.922;5.346;2022-07-29T06:17:33;14.07;;;5.32;;
25913;SDS011;13718;50.922;5.346;2022-07-29T06:19:59;9.68;;;5.40;;
25913;SDS011;13718;50.922;5.346;2022-07-29T06:22:25;10.48;;;5.82;;
25913;SDS011;13718;50.922;5.346;2022-07-29T06:24:50;10.93;;;5.43;;
25913;SDS011;13718;50.922;5.346;2022-07-29T06:27:16;10.23;;;5.03;;
25913;SDS011;13718;50.922;5.346;2022-07-29T06:29:41;11.60;;;5.05;;
25913;SDS011;13718;50.922;5.346;2022-07-29T06:32:07;11.15;;;5.03;;
25913;SDS011;13718;50.922;5.346;2022-07-29T06:34:34;10.77;;;4.97;;
25913;SDS011;13718;50.922;5.346;2022-07-29T06:37:00;9.05;;;4.22;;
25913;SDS011;13718;50.922;5.346;2022-07-29T06:39:33;6.87;;;4.40;;
25913;SDS011;13718;50.922;5.346;2022-07-29T06:42:01;8.00;;;4.95;;
25913;SDS011;13718;50.922;5.346;2022-07-29T06:44:30;12.85;;;4.57;;
25913;SDS011;13718;50.922;5.346;2022-07-29T06:46:58;6.82;;;4.13;;
25913;SDS011;13718;50.922;5.346;2022-07-29T06:49:24;13.52;;;4.70;;
25913;SDS011;13718;50.922;5.346;2022-07-29T06:51:51;9.00;;;4.10;;
25913;SDS011;13718;50.922;5.346;2022-07-29T06:54:17;9.40;;;4.20;;
25913;SDS011;13718;50.922;5.346;2022-07-29T06:56:42;9.90;;;4.13;;
25913;SDS011;13718;50.922;5.346;2022-07-29T06:59:09;6.70;;;4.03;;
25913;SDS011;13718;50.922;5.346;2022-07-29T07:01:36;7.05;;;4.10;;
25913;SDS011;13718;50.922;5.346;2022-07-29T07:04:02;6.07;;;3.45;;
25913;SDS011;13718;50.922;5.346;2022-07-29T07:06:28;7.90;;;4.03;;
25913;SDS011;13718;50.922;5.346;2022-07-29T07:08:54;6.18;;;3.22;;
25913;SDS011;13718;50.922;5.346;2022-07-29T07:11:19;8.77;;;3.58;;
25913;SDS011;13718;50.922;5.346;2022-07-29T07:13:45;9.27;;;3.70;;
25913;SDS011;13718;50.922;5.346;2022-07-29T07:16:11;9.15;;;3.83;;
25913;SDS011;13718;50.922;5.346;2022-07-29T07:18:36;7.25;;;3.60;;
25913;SDS011;13718;50.922;5.346;2022-07-29T07:21:02;7.60;;;3.50;;
25913;SDS011;13718;50.922;5.346;2022-07-29T07:23:30;12.38;;;3.75;;
25913;SDS011;13718;50.922;5.346;2022-07-29T07:25:56;6.25;;;3.25;;
25913;SDS011;13718;50.922;5.346;2022-07-29T07:28:22;11.98;;;3.40;;
25913;SDS011;13718;50.922;5.346;2022-07-29T07:30:47;5.85;;;3.30;;
25913;SDS011;13718;50.922;5.346;2022-07-29T07:33:13;6.35;;;3.70;;
25913;SDS011;13718;50.922;5.346;2022-07-29T07:35:39;5.45;;;3.65;;
25913;SDS011;13718;50.922;5.346;2022-07-29T07:38:05;7.60;;;3.80;;
25913;SDS011;13718;50.922;5.346;2022-07-29T07:40:31;5.63;;;3.28;;
25913;SDS011;13718;50.922;5.346;2022-07-29T07:42:56;7.05;;;3.40;;
25913;SDS011;13718;50.922;5.346;2022-07-29T07:45:22;10.02;;;4.03;;
25913;SDS011;13718;50.922;5.346;2022-07-29T07:47:48;7.15;;;3.67;;
25913;SDS011;13718;50.922;5.346;2022-07-29T07:50:14;9.23;;;3.63;;
25913;SDS011;13718;50.922;5.346;2022-07-29T07:52:50;6.70;;;3.92;;
25913;SDS011;13718;50.922;5.346;2022-07-29T07:55:17;6.90;;;4.03;;
25913;SDS011;13718;50.922;5.346;2022-07-29T07:57:44;7.50;;;3.55;;
25913;SDS011;13718;50.922;5.346;2022-07-29T08:00:11;7.63;;;3.42;;
25913;SDS011;13718;50.922;5.346;2022-07-29T08:02:38;6.57;;;3.17;;
25913;SDS011;13718;50.922;5.346;2022-07-29T08:05:04;10.55;;;3.55;;
25913;SDS011;13718;50.922;5.346;2022-07-29T08:07:31;4.70;;;2.92;;
25913;SDS011;13718;50.922;5.346;2022-07-29T08:09:57;6.55;;;3.10;;
25913;SDS011;13718;50.922;5.346;2022-07-29T08:12:22;10.38;;;3.45;;
25913;SDS011;13718;50.922;5.346;2022-07-29T08:14:48;10.45;;;3.78;;
25913;SDS011;13718;50.922;5.346;2022-07-29T08:17:13;5.90;;;3.13;;
25913;SDS011;13718;50.922;5.346;2022-07-29T08:19:39;14.65;;;3.35;;
25913;SDS011;13718;50.922;5.346;2022-07-29T08:22:05;6.78;;;3.67;;
25913;SDS011;13718;50.922;5.346;2022-07-29T08:24:30;6.57;;;2.95;;
25913;SDS011;13718;50.922;5.346;2022-07-29T08:27:08;7.15;;;2.90;;
25913;SDS011;13718;50.922;5.346;2022-07-29T08:29:37;5.80;;;2.60;;
25913;SDS011;13718;50.922;5.346;2022-07-29T08:32:04;5.85;;;2.80;;
25913;SDS011;13718;50.922;5.346;2022-07-29T08:34:30;4.85;;;2.80;;
25913;SDS011;13718;50.922;5.346;2022-07-29T08:36:56;8.13;;;2.60;;
25913;SDS011;13718;50.922;5.346;2022-07-29T08:39:22;4.07;;;2.53;;
25913;SDS011;13718;50.922;5.346;2022-07-29T08:41:49;7.97;;;3.25;;
25913;SDS011;13718;50.922;5.346;2022-07-29T08:44:16;9.77;;;3.17;;
25913;SDS011;13718;50.922;5.346;2022-07-29T08:46:46;5.43;;;2.53;;
25913;SDS011;13718;50.922;5.346;2022-07-29T08:49:13;5.25;;;2.60;;
25913;SDS011;13718;50.922;5.346;2022-07-29T08:51:39;7.65;;;3.00;;
25913;SDS011;13718;50.922;5.346;2022-07-29T08:54:05;5.53;;;2.90;;
25913;SDS011;13718;50.922;5.346;2022-07-29T08:56:33;7.97;;;3.03;;
25913;SDS011;13718;50.922;5.346;2022-07-29T08:58:59;6.28;;;2.90;;
25913;SDS011;13718;50.922;5.346;2022-07-29T09:01:28;11.48;;;3.00;;
25913;SDS011;13718;50.922;5.346;2022-07-29T09:03:55;7.15;;;3.03;;
25913;SDS011;13718;50.922;5.346;2022-07-29T09:06:23;6.65;;;3.55;;
25913;SDS011;13718;50.922;5.346;2022-07-29T09:08:52;7.07;;;3.17;;
25913;SDS011;13718;50.922;5.346;2022-07-29T09:11:19;8.23;;;2.85;;
25913;SDS011;13718;50.922;5.346;2022-07-29T09:13:45;6.75;;;3.00;;
25913;SDS011;13718;50.922;5.346;2022-07-29T09:16:11;7.22;;;2.97;;
25913;SDS011;13718;50.922;5.346;2022-07-29T09:18:40;7.47;;;3.28;;
25913;SDS011;13718;50.922;5.346;2022-07-29T09:21:08;5.80;;;2.73;;
25913;SDS011;13718;50.922;5.346;2022-07-29T09:24:13;7.57;;;3.53;;
25913;SDS011;13718;50.922;5.346;2022-07-29T09:26:42;9.00;;;3.20;;
25913;SDS011;13718;50.922;5.346;2022-07-29T09:29:10;5.90;;;2.75;;
25913;SDS011;13718;50.922;5.346;2022-07-29T09:31:39;5.05;;;2.80;;
25913;SDS011;13718;50.922;5.346;2022-07-29T09:34:10;6.13;;;2.78;;
25913;SDS011;13718;50.922;5.346;2022-07-29T09:36:41;5.55;;;2.80;;
25913;SDS011;13718;50.922;5.346;2022-07-29T09:39:08;7.03;;;3.58;;
25913;SDS011;13718;50.922;5.346;2022-07-29T09:41:44;5.55;;;3.35;;
25913;SDS011;13718;50.922;5.346;2022-07-29T09:44:11;8.50;;;3.17;;
25913;SDS011;13718;50.922;5.346;2022-07-29T09:46:36;5.63;;;3.35;;
25913;SDS011;13718;50.922;5.346;2022-07-29T09:49:06;6.97;;;3.50;;
25913;SDS011;13718;50.922;5.346;2022-07-29T09:51:33;6.95;;;3.40;;
25913;SDS011;13718;50.922;5.346;2022-07-29T09:53:59;6.63;;;3.80;;
25913;SDS011;13718;50.922;5.346;2022-07-29T09:56:38;6.85;;;3.90;;
25913;SDS011;13718;50.922;5.346;2022-07-29T09:59:05;7.03;;;3.75;;
25913;SDS011;13718;50.922;5.346;2022-07-29T10:01:32;5.30;;;3.30;;
25913;SDS011;13718;50.922;5.346;2022-07-29T10:03:57;6.85;;;4.03;;
25913;SDS011;13718;50.922;5.346;2022-07-29T10:06:23;8.13;;;3.72;;
25913;SDS011;13718;50.922;5.346;2022-07-29T10:08:48;8.85;;;3.65;;
25913;SDS011;13718;50.922;5.346;2022-07-29T10:11:17;11.18;;;3.63;;
25913;SDS011;13718;50.922;5.346;2022-07-29T10:13:45;7.80;;;3.90;;
25913;SDS011;13718;50.922;5.346;2022-07-29T10:16:13;4.30;;;2.65;;
25913;SDS011;13718;50.922;5.346;2022-07-29T10:18:41;5.63;;;2.70;;
25913;SDS011;13718;50.922;5.346;2022-07-29T10:21:07;4.95;;;2.60;;
25913;SDS011;13718;50.922;5.346;2022-07-29T10:23:33;6.88;;;2.55;;
25913;SDS011;13718;50.922;5.346;2022-07-29T10:25:59;7.25;;;2.70;;
25913;SDS011;13718;50.922;5.346;2022-07-29T10:28:25;4.70;;;3.00;;
25913;SDS011;13718;50.922;5.346;2022-07-29T10:30:51;6.75;;;2.60;;
25913;SDS011;13718;50.922;5.346;2022-07-29T10:33:41;6.07;;;2.75;;
25913;SDS011;13718;50.922;5.346;2022-07-29T10:36:31;6.30;;;3.20;;
25913;SDS011;13718;50.922;5.346;2022-07-29T10:44:31;8.18;;;2.80;;
25913;SDS011;13718;50.922;5.346;2022-07-29T10:46:58;6.45;;;2.78;;
25913;SDS011;13718;50.922;5.346;2022-07-29T10:49:27;7.57;;;2.67;;
25913;SDS011;13718;50.922;5.346;2022-07-29T10:51:55;7.78;;;2.67;;
25913;SDS011;13718;50.922;5.346;2022-07-29T11:07:24;7.80;;;2.15;;
25913;SDS011;13718;50.922;5.346;2022-07-29T11:15:13;5.82;;;1.98;;
25913;SDS011;13718;50.922;5.346;2022-07-29T11:20:33;4.20;;;2.13;;
25913;SDS011;13718;50.922;5.346;2022-07-29T11:23:20;8.75;;;1.90;;
25913;SDS011;13718;50.922;5.346;2022-07-29T11:33:57;3.75;;;2.25;;
25913;SDS011;13718;50.922;5.346;2022-07-29T11:39:34;3.13;;;1.88;;
25913;SDS011;13718;50.922;5.346;2022-07-29T11:49:53;4.75;;;2.30;;
25913;SDS011;13718;50.922;5.346;2022-07-29T11:52:20;4.55;;;1.90;;
25913;SDS011;13718;50.922;5.346;2022-07-29T11:54:51;3.10;;;1.98;;
25913;SDS011;13718;50.922;5.346;2022-07-29T11:57:17;5.50;;;2.03;;
25913;SDS011;13718;50.922;5.346;2022-07-29T11:59:45;4.70;;;1.90;;
25913;SDS011;13718;50.922;5.346;2022-07-29T12:02:12;4.65;;;2.50;;
25913;SDS011;13718;50.922;5.346;2022-07-29T12:04:52;6.25;;;2.28;;
25913;SDS011;13718;50.922;5.346;2022-07-29T12:07:18;5.10;;;2.22;;
25913;SDS011;13718;50.922;5.346;2022-07-29T12:09:52;2.78;;;1.83;;
25913;SDS011;13718;50.922;5.346;2022-07-29T12:12:18;5.50;;;2.28;;
25913;SDS011;13718;50.922;5.346;2022-07-29T12:14:44;5.80;;;2.40;;
25913;SDS011;13718;50.922;5.346;2022-07-29T12:19:54;5.72;;;2.60;;
25913;SDS011;13718;50.922;5.346;2022-07-29T12:25:09;7.70;;;2.58;;
25913;SDS011;13718;50.922;5.346;2022-07-29T12:27:37;4.03;;;2.45;;
25913;SDS011;13718;50.922;5.346;2022-07-29T12:30:07;7.25;;;2.50;;
25913;SDS011;13718;50.922;5.346;2022-07-29T12:32:35;5.55;;;1.95;;
25913;SDS011;13718;50.922;5.346;2022-07-29T12:35:07;5.00;;;2.70;;
25913;SDS011;13718;50.922;5.346;2022-07-29T12:37:35;5.30;;;1.90;;
25913;SDS011;13718;50.922;5.346;2022-07-29T12:40:05;3.50;;;1.85;;
25913;SDS011;13718;50.922;5.346;2022-07-29T12:42:33;3.33;;;1.80;;
25913;SDS011;13718;50.922;5.346;2022-07-29T12:44:59;4.60;;;1.98;;
25913;SDS011;13718;50.922;5.346;2022-07-29T12:47:26;3.17;;;1.90;;
25913;SDS011;13718;50.922;5.346;2022-07-29T12:50:07;4.32;;;2.10;;
25913;SDS011;13718;50.922;5.346;2022-07-29T12:52:37;6.53;;;2.20;;
25913;SDS011;13718;50.922;5.346;2022-07-29T12:55:03;4.30;;;2.10;;
25913;SDS011;13718;50.922;5.346;2022-07-29T12:57:29;5.63;;;2.10;;
25913;SDS011;13718;50.922;5.346;2022-07-29T13:00:03;4.28;;;1.90;;
25913;SDS011;13718;50.922;5.346;2022-07-29T13:02:34;3.47;;;1.80;;
25913;SDS011;13718;50.922;5.346;2022-07-29T13:05:01;4.88;;;2.05;;
25913;SDS011;13718;50.922;5.346;2022-07-29T13:07:27;3.78;;;1.73;;
25913;SDS011;13718;50.922;5.346;2022-07-29T13:09:58;4.72;;;1.80;;
25913;SDS011;13718;50.922;5.346;2022-07-29T13:15:40;4.45;;;2.10;;
25913;SDS011;13718;50.922;5.346;2022-07-29T13:18:26;2.80;;;1.77;;
25913;SDS011;13718;50.922;5.346;2022-07-29T13:20:56;4.93;;;1.90;;
25913;SDS011;13718;50.922;5.346;2022-07-29T13:23:22;3.03;;;1.70;;
25913;SDS011;13718;50.922;5.346;2022-07-29T13:25:48;3.80;;;2.10;;
25913;SDS011;13718;50.922;5.346;2022-07-29T13:28:13;6.05;;;2.08;;
25913;SDS011;13718;50.922;5.346;2022-07-29T13:30:39;4.05;;;2.05;;
25913;SDS011;13718;50.922;5.346;2022-07-29T13:33:05;4.65;;;1.88;;
25913;SDS011;13718;50.922;5.346;2022-07-29T13:35:31;4.43;;;2.33;;
25913;SDS011;13718;50.922;5.346;2022-07-29T13:37:57;6.53;;;1.90;;
25913;SDS011;13718;50.922;5.346;2022-07-29T13:40:23;7.07;;;2.00;;
25913;SDS011;13718;50.922;5.346;2022-07-29T13:42:48;4.50;;;2.13;;
25913;SDS011;13718;50.922;5.346;2022-07-29T13:45:14;4.53;;;1.80;;
25913;SDS011;13718;50.922;5.346;2022-07-29T13:47:40;4.13;;;1.88;;
25913;SDS011;13718;50.922;5.346;2022-07-29T13:50:06;2.53;;;1.60;;
25913;SDS011;13718;50.922;5.346;2022-07-29T13:52:34;3.45;;;1.90;;
25913;SDS011;13718;50.922;5.346;2022-07-29T13:55:01;5.90;;;1.98;;
25913;SDS011;13718;50.922;5.346;2022-07-29T13:57:27;4.35;;;1.83;;
25913;SDS011;13718;50.922;5.346;2022-07-29T13:59:53;4.45;;;1.77;;
25913;SDS011;13718;50.922;5.346;2022-07-29T14:02:18;4.97;;;1.70;;
25913;SDS011;13718;50.922;5.346;2022-07-29T14:04:44;3.25;;;1.60;;
25913;SDS011;13718;50.922;5.346;2022-07-29T14:07:10;3.90;;;1.60;;
25913;SDS011;13718;50.922;5.346;2022-07-29T14:09:35;4.15;;;1.45;;
25913;SDS011;13718;50.922;5.346;2022-07-29T14:12:01;3.75;;;1.80;;
25913;SDS011;13718;50.922;5.346;2022-07-29T14:14:27;3.08;;;1.55;;
25913;SDS011;13718;50.922;5.346;2022-07-29T14:16:54;4.40;;;1.50;;
25913;SDS011;13718;50.922;5.346;2022-07-29T14:19:19;4.90;;;1.83;;
25913;SDS011;13718;50.922;5.346;2022-07-29T14:21:45;4.22;;;1.63;;
25913;SDS011;13718;50.922;5.346;2022-07-29T14:24:11;6.95;;;2.38;;
25913;SDS011;13718;50.922;5.346;2022-07-29T14:26:36;4.38;;;1.60;;
25913;SDS011;13718;50.922;5.346;2022-07-29T14:29:02;4.43;;;1.80;;
25913;SDS011;13718;50.922;5.346;2022-07-29T14:31:27;2.17;;;1.45;;
25913;SDS011;13718;50.922;5.346;2022-07-29T14:33:53;5.22;;;1.65;;
25913;SDS011;13718;50.922;5.346;2022-07-29T14:36:18;5.65;;;2.03;;
25913;SDS011;13718;50.922;5.346;2022-07-29T14:38:44;3.50;;;1.60;;
25913;SDS011;13718;50.922;5.346;2022-07-29T14:41:10;5.57;;;1.75;;
25913;SDS011;13718;50.922;5.346;2022-07-29T14:43:35;3.78;;;2.13;;
25913;SDS011;13718;50.922;5.346;2022-07-29T14:46:01;4.03;;;1.90;;
25913;SDS011;13718;50.922;5.346;2022-07-29T14:48:27;6.97;;;1.88;;
25913;SDS011;13718;50.922;5.346;2022-07-29T14:50:53;4.10;;;1.73;;
25913;SDS011;13718;50.922;5.346;2022-07-29T14:53:19;5.35;;;2.03;;
25913;SDS011;13718;50.922;5.346;2022-07-29T14:55:45;9.10;;;1.75;;
25913;SDS011;13718;50.922;5.346;2022-07-29T14:58:11;5.35;;;1.70;;
25913;SDS011;13718;50.922;5.346;2022-07-29T15:00:36;3.78;;;1.65;;
25913;SDS011;13718;50.922;5.346;2022-07-29T15:03:02;3.78;;;1.70;;
25913;SDS011;13718;50.922;5.346;2022-07-29T15:05:31;5.93;;;1.83;;
25913;SDS011;13718;50.922;5.346;2022-07-29T15:07:57;6.90;;;1.85;;
25913;SDS011;13718;50.922;5.346;2022-07-29T15:10:24;6.75;;;2.03;;
25913;SDS011;13718;50.922;5.346;2022-07-29T15:12:51;4.20;;;1.35;;
25913;SDS011;13718;50.922;5.346;2022-07-29T15:15:17;4.53;;;1.63;;
25913;SDS011;13718;50.922;5.346;2022-07-29T15:17:43;6.35;;;1.95;;
25913;SDS011;13718;50.922;5.346;2022-07-29T15:20:09;4.53;;;1.58;;
25913;SDS011;13718;50.922;5.346;2022-07-29T15:22:36;4.35;;;1.90;;
25913;SDS011;13718;50.922;5.346;2022-07-29T15:25:03;3.30;;;1.98;;
25913;SDS011;13718;50.922;5.346;2022-07-29T15:27:29;7.07;;;1.50;;
25913;SDS011;13718;50.922;5.346;2022-07-29T15:29:54;3.75;;;1.70;;
25913;SDS011;13718;50.922;5.346;2022-07-29T15:32:20;4.45;;;1.70;;
25913;SDS011;13718;50.922;5.346;2022-07-29T15:34:46;5.10;;;1.40;;
25913;SDS011;13718;50.922;5.346;2022-07-29T15:37:12;6.95;;;1.55;;
25913;SDS011;13718;50.922;5.346;2022-07-29T15:39:37;3.40;;;1.50;;
25913;SDS011;13718;50.922;5.346;2022-07-29T15:42:03;2.92;;;1.48;;
25913;SDS011;13718;50.922;5.346;2022-07-29T15:44:29;4.72;;;1.45;;
25913;SDS011;13718;50.922;5.346;2022-07-29T15:46:54;4.72;;;1.70;;
25913;SDS011;13718;50.922;5.346;2022-07-29T15:49:35;4.80;;;1.60;;
25913;SDS011;13718;50.922;5.346;2022-07-29T15:52:03;3.75;;;1.60;;
25913;SDS011;13718;50.922;5.346;2022-07-29T15:54:31;3.45;;;1.30;;
25913;SDS011;13718;50.922;5.346;2022-07-29T15:56:58;4.22;;;1.38;;